createdAt,value
2022-11-13T00:01:12.468Z,52.13
2022-11-13T00:03:40.230Z,51.67
2022-11-13T00:06:10.720Z,61.80
2022-11-13T00:08:38.295Z,56.43
2022-11-13T00:11:08.649Z,87.90
2022-11-13T00:13:36.463Z,86.20
2022-11-13T00:16:06.234Z,53.93
2022-11-13T00:18:36.702Z,225.60
2022-11-13T00:21:10.287Z,91.33
2022-11-13T00:23:38.753Z,122.97
2022-11-13T00:26:08.534Z,110.20
2022-11-13T00:28:37.190Z,140.07
2022-11-13T00:31:06.504Z,100.63
2022-11-13T00:36:27.453Z,90.07
2022-11-13T00:38:57.227Z,71.93
2022-11-13T00:41:26.185Z,63.50
2022-11-13T00:43:54.688Z,58.80
2022-11-13T00:46:23.313Z,59.63
2022-11-13T00:48:52.444Z,56.03
2022-11-13T00:51:20.268Z,52.60
2022-11-13T00:53:49.318Z,49.90
2022-11-13T00:56:17.012Z,49.57
2022-11-13T00:58:44.861Z,57.87
2022-11-13T01:01:14.985Z,50.67
2022-11-13T01:03:43.470Z,53.80
2022-11-13T01:06:13.187Z,51.17
2022-11-13T01:08:41.869Z,50.43
2022-11-13T01:11:14.696Z,49.67
2022-11-13T01:13:44.441Z,51.27
2022-11-13T01:16:14.359Z,51.73
2022-11-13T01:18:43.406Z,50.83
2022-11-13T01:21:13.001Z,52.83
2022-11-13T01:23:42.691Z,55.30
2022-11-13T01:26:14.137Z,52.73
2022-11-13T01:28:44.518Z,53.37
2022-11-13T01:31:16.720Z,54.17
2022-11-13T01:33:46.708Z,53.13
2022-11-13T01:36:17.052Z,50.33
2022-11-13T01:38:45.052Z,49.97
2022-11-13T01:41:23.413Z,50.20
2022-11-13T01:43:53.168Z,50.23
2022-11-13T01:46:26.085Z,50.23
2022-11-13T01:48:59.977Z,52.57
2022-11-13T01:51:33.058Z,55.77
2022-11-13T01:54:03.800Z,53.30
2022-11-13T01:56:33.799Z,49.10
2022-11-13T01:59:08.124Z,60.57
2022-11-13T02:01:36.113Z,55.17
2022-11-13T02:04:04.103Z,53.80
2022-11-13T02:06:37.684Z,53.30
2022-11-13T02:09:06.957Z,54.83
2022-11-13T02:11:36.828Z,52.67
2022-11-13T02:14:06.475Z,52.57
2022-11-13T02:16:37.157Z,54.20
2022-11-13T02:19:17.676Z,63.00
2022-11-13T02:21:53.258Z,59.97
2022-11-13T02:24:26.776Z,58.63
2022-11-13T02:26:57.798Z,57.27
2022-11-13T02:29:25.881Z,55.67
2022-11-13T02:31:53.786Z,57.33
2022-11-13T02:34:21.989Z,53.47
2022-11-13T02:36:50.216Z,57.13
2022-11-13T02:39:18.362Z,57.87
2022-11-13T02:41:47.636Z,56.60
2022-11-13T02:44:15.615Z,55.63
2022-11-13T02:46:44.038Z,52.93
2022-11-13T02:49:11.967Z,56.83
2022-11-13T02:51:39.886Z,56.70
2022-11-13T02:54:09.907Z,56.17
2022-11-13T02:56:39.689Z,57.97
2022-11-13T02:59:09.329Z,59.70
2022-11-13T03:01:37.260Z,59.43
2022-11-13T03:04:05.397Z,57.10
2022-11-13T03:06:33.292Z,58.70
2022-11-13T03:09:01.590Z,58.60
2022-11-13T03:11:30.107Z,56.83
2022-11-13T03:13:58.091Z,59.57
2022-11-13T03:16:27.434Z,56.37
2022-11-13T03:18:56.683Z,60.30
2022-11-13T03:21:25.373Z,59.30
2022-11-13T03:23:55.256Z,58.23
2022-11-13T03:26:23.763Z,57.97
2022-11-13T03:28:52.342Z,56.63
2022-11-13T03:31:20.646Z,54.07
2022-11-13T03:33:50.324Z,57.70
2022-11-13T03:36:18.885Z,56.47
2022-11-13T03:38:46.929Z,56.93
2022-11-13T03:41:15.542Z,59.57
2022-11-13T03:43:43.639Z,56.00
2022-11-13T03:46:11.584Z,54.90
2022-11-13T03:48:40.293Z,57.37
2022-11-13T03:51:09.848Z,56.87
2022-11-13T03:53:37.808Z,56.50
2022-11-13T03:56:06.318Z,52.93
2022-11-13T03:58:37.374Z,55.70
2022-11-13T04:01:07.964Z,58.67
2022-11-13T04:03:36.439Z,55.27
2022-11-13T04:06:04.617Z,56.80
2022-11-13T04:08:33.871Z,57.87
2022-11-13T04:11:07.831Z,56.50
2022-11-13T04:13:35.894Z,58.87
2022-11-13T04:16:04.130Z,57.20
2022-11-13T04:18:32.297Z,57.33
2022-11-13T04:21:01.159Z,58.07
2022-11-13T04:23:29.105Z,55.87
2022-11-13T04:25:59.044Z,57.37
2022-11-13T04:28:27.668Z,59.53
2022-11-13T04:30:56.460Z,55.27
2022-11-13T04:33:24.384Z,56.47
2022-11-13T04:35:52.330Z,57.87
2022-11-13T04:38:20.304Z,57.20
2022-11-13T04:40:51.168Z,58.03
2022-11-13T04:43:19.403Z,57.23
2022-11-13T04:45:47.385Z,58.03
2022-11-13T04:48:15.317Z,55.30
2022-11-13T04:50:43.341Z,56.00
2022-11-13T04:53:11.255Z,55.33
2022-11-13T04:55:39.138Z,57.40
2022-11-13T04:58:07.100Z,59.80
2022-11-13T05:00:36.434Z,60.57
2022-11-13T05:03:04.502Z,58.10
2022-11-13T05:05:32.388Z,56.13
2022-11-13T05:08:00.289Z,56.83
2022-11-13T05:10:28.310Z,57.30
2022-11-13T05:12:57.600Z,58.43
2022-11-13T05:15:25.445Z,57.13
2022-11-13T05:17:55.238Z,55.83
2022-11-13T05:20:23.139Z,60.03
2022-11-13T05:22:51.081Z,57.73
2022-11-13T05:25:19.033Z,54.37
2022-11-13T05:27:46.946Z,57.83
2022-11-13T05:30:14.951Z,58.03
2022-11-13T05:32:42.834Z,59.17
2022-11-13T05:35:12.187Z,59.23
2022-11-13T05:37:40.128Z,60.03
2022-11-13T05:40:08.978Z,60.33
2022-11-13T05:42:36.937Z,58.17
2022-11-13T05:45:05.208Z,62.93
2022-11-13T05:47:46.490Z,59.70
2022-11-13T05:50:18.220Z,58.30
2022-11-13T05:52:45.788Z,59.67
2022-11-13T05:55:13.506Z,61.30
2022-11-13T05:57:43.556Z,59.37
2022-11-13T06:00:22.023Z,61.90
2022-11-13T06:02:49.934Z,59.23
2022-11-13T06:05:19.126Z,59.23
2022-11-13T06:07:50.215Z,59.97
2022-11-13T06:10:18.401Z,59.43
2022-11-13T06:12:46.321Z,57.97
2022-11-13T06:15:14.269Z,60.50
2022-11-13T06:17:46.375Z,59.10
2022-11-13T06:20:22.660Z,59.80
2022-11-13T06:22:53.710Z,60.60
2022-11-13T06:25:21.663Z,62.50
2022-11-13T06:27:49.402Z,60.90
2022-11-13T06:30:17.348Z,58.83
2022-11-13T06:32:45.259Z,61.77
2022-11-13T06:35:13.472Z,60.80
2022-11-13T06:37:53.786Z,64.37
2022-11-13T06:40:23.383Z,70.20
2022-11-13T06:42:51.392Z,68.80
2022-11-13T06:45:19.534Z,73.93
2022-11-13T06:47:47.248Z,69.27
2022-11-13T06:50:15.275Z,70.87
2022-11-13T06:52:43.262Z,66.43
2022-11-13T06:55:11.183Z,68.10
2022-11-13T06:57:40.513Z,80.40
2022-11-13T07:00:09.774Z,79.80
2022-11-13T07:02:37.714Z,71.40
2022-11-13T07:05:06.154Z,74.33
2022-11-13T07:07:34.550Z,71.17
2022-11-13T07:10:02.714Z,71.73
2022-11-13T07:12:30.768Z,67.90
2022-11-13T07:15:00.134Z,70.80
2022-11-13T07:17:30.040Z,73.20
2022-11-13T07:19:57.609Z,71.23
2022-11-13T07:22:25.213Z,69.67
2022-11-13T07:24:52.772Z,69.60
2022-11-13T07:27:20.376Z,70.53
2022-11-13T07:29:47.967Z,70.40
2022-11-13T07:32:16.867Z,67.10
2022-11-13T07:34:44.468Z,68.67
2022-11-13T07:37:12.160Z,69.27
2022-11-13T07:39:39.749Z,67.63
2022-11-13T07:42:07.521Z,68.03
2022-11-13T07:44:53.419Z,70.83
2022-11-13T07:47:23.508Z,68.37
2022-11-13T07:49:51.370Z,73.17
2022-11-13T07:52:19.006Z,65.30
2022-11-13T07:54:46.796Z,68.60
2022-11-13T07:57:15.776Z,69.53
2022-11-13T07:59:44.277Z,65.87
2022-11-13T08:02:16.436Z,68.70
2022-11-13T08:04:46.076Z,65.10
2022-11-13T08:07:13.867Z,66.53
2022-11-13T08:09:41.507Z,63.20
2022-11-13T08:12:09.257Z,66.20
2022-11-13T08:14:37.734Z,61.17
2022-11-13T08:17:05.486Z,59.40
2022-11-13T08:19:33.113Z,60.33
2022-11-13T08:22:02.196Z,62.80
2022-11-13T08:24:29.976Z,61.20
2022-11-13T08:26:58.724Z,61.23
2022-11-13T08:29:27.490Z,60.33
2022-11-13T08:31:56.054Z,59.63
2022-11-13T08:34:24.131Z,58.60
2022-11-13T08:36:52.961Z,61.67
2022-11-13T08:39:22.562Z,58.90
2022-11-13T08:41:51.610Z,57.97
2022-11-13T08:44:20.440Z,59.60
2022-11-13T08:46:48.604Z,57.73
2022-11-13T08:49:16.172Z,60.23
2022-11-13T08:51:43.807Z,60.80
2022-11-13T08:54:11.409Z,57.50
2022-11-13T08:56:41.501Z,58.77
2022-11-13T08:59:11.315Z,55.50
2022-11-13T09:01:39.993Z,57.37
2022-11-13T09:04:08.748Z,55.83
2022-11-13T09:06:36.713Z,56.13
2022-11-13T09:09:06.589Z,57.03
2022-11-13T09:11:34.641Z,57.57
2022-11-13T09:14:03.545Z,56.30
2022-11-13T09:16:31.189Z,56.47
2022-11-13T09:18:58.788Z,56.10
2022-11-13T09:21:26.337Z,56.80
2022-11-13T09:23:53.946Z,58.40
2022-11-13T09:26:21.619Z,59.40
2022-11-13T09:28:49.332Z,55.53
2022-11-13T09:31:18.260Z,55.87
2022-11-13T09:33:45.853Z,57.27
2022-11-13T09:36:15.347Z,57.10
2022-11-13T09:38:43.384Z,53.60
2022-11-13T09:41:14.059Z,56.77
2022-11-13T09:43:45.949Z,58.27
2022-11-13T09:46:21.114Z,56.67
2022-11-13T09:48:53.926Z,54.97
2022-11-13T09:51:25.776Z,55.37
2022-11-13T09:53:53.507Z,55.87
2022-11-13T09:56:29.683Z,57.30
2022-11-13T09:59:06.640Z,55.00
2022-11-13T10:01:44.495Z,55.27
2022-11-13T10:04:15.156Z,53.90
2022-11-13T10:06:59.362Z,53.17
2022-11-13T10:09:37.868Z,53.30
2022-11-13T10:12:08.337Z,52.63
2022-11-13T10:14:39.692Z,54.47
2022-11-13T10:17:16.258Z,54.30
2022-11-13T10:19:54.220Z,53.80
2022-11-13T10:22:34.687Z,53.77
2022-11-13T10:25:12.722Z,51.20
2022-11-13T10:27:43.523Z,54.43
2022-11-13T10:30:16.874Z,53.73
2022-11-13T10:32:47.404Z,51.70
2022-11-13T10:35:33.897Z,53.97
2022-11-13T10:38:08.246Z,53.73
2022-11-13T10:40:39.258Z,55.10
2022-11-13T10:43:14.292Z,51.67
2022-11-13T10:45:41.997Z,54.67
2022-11-13T10:48:21.901Z,53.23
2022-11-13T10:50:59.234Z,52.90
2022-11-13T10:53:32.057Z,53.90
2022-11-13T10:56:01.088Z,54.83
2022-11-13T10:58:30.323Z,54.47
2022-11-13T11:00:58.364Z,54.50
2022-11-13T11:03:29.280Z,53.20
2022-11-13T11:05:58.806Z,54.30
2022-11-13T11:08:31.292Z,55.50
2022-11-13T11:11:18.758Z,57.80
2022-11-13T11:13:47.045Z,56.13
2022-11-13T11:16:22.195Z,58.97
2022-11-13T11:18:56.928Z,56.97
2022-11-13T11:21:30.352Z,55.03
2022-11-13T11:24:02.053Z,57.20
2022-11-13T11:26:34.009Z,59.17
2022-11-13T11:29:09.553Z,59.10
2022-11-13T11:31:44.725Z,58.97
2022-11-13T11:34:20.758Z,58.60
2022-11-13T11:36:59.092Z,58.97
2022-11-13T11:39:30.600Z,61.87
2022-11-13T11:42:11.421Z,60.33
2022-11-13T11:44:51.872Z,57.60
2022-11-13T11:47:19.609Z,57.30
2022-11-13T11:49:51.204Z,59.63
2022-11-13T11:52:44.269Z,59.67
2022-11-13T11:55:31.538Z,59.27
2022-11-13T11:58:02.523Z,60.40
2022-11-13T12:00:33.686Z,63.13
2022-11-13T12:03:35.180Z,61.53
2022-11-13T12:06:12.633Z,63.20
2022-11-13T12:08:49.504Z,62.50
2022-11-13T12:11:27.749Z,62.03
2022-11-13T12:14:04.540Z,59.73
2022-11-13T12:16:43.054Z,60.70
2022-11-13T12:19:23.525Z,57.30
2022-11-13T12:22:11.653Z,60.77
2022-11-13T12:24:58.028Z,59.27
2022-11-13T12:27:34.812Z,56.17
2022-11-13T12:30:11.798Z,57.23
2022-11-13T12:33:07.670Z,58.57
2022-11-13T12:35:36.453Z,56.73
2022-11-13T12:38:13.995Z,57.00
2022-11-13T12:40:48.991Z,56.60
2022-11-13T12:43:46.155Z,55.63
2022-11-13T12:46:14.308Z,56.87
2022-11-13T12:48:43.801Z,56.80
2022-11-13T12:51:13.757Z,57.40
2022-11-13T12:53:48.548Z,57.37
2022-11-13T12:56:30.056Z,56.40
2022-11-13T13:01:52.890Z,58.63
2022-11-13T13:04:49.702Z,57.57
2022-11-13T13:07:31.833Z,58.83
2022-11-13T13:10:12.845Z,57.30
2022-11-13T13:12:50.418Z,60.40
2022-11-13T13:15:31.523Z,56.93
2022-11-13T13:18:10.553Z,60.97
2022-11-13T13:20:39.952Z,59.60
2022-11-13T13:23:12.564Z,58.57
2022-11-13T13:25:42.089Z,53.33
2022-11-13T13:28:21.257Z,54.30
2022-11-13T13:30:55.536Z,54.83
2022-11-13T13:33:27.048Z,53.87
2022-11-13T13:36:03.483Z,54.50
2022-11-13T13:38:37.920Z,57.03
2022-11-13T13:41:20.708Z,62.97
2022-11-13T13:43:58.696Z,54.60
2022-11-13T13:46:30.405Z,51.73
2022-11-13T13:49:05.808Z,54.30
2022-11-13T13:51:37.036Z,56.43
2022-11-13T13:54:08.715Z,57.10
2022-11-13T13:56:41.420Z,54.30
2022-11-13T13:59:17.373Z,53.30
2022-11-13T14:01:55.316Z,54.03
2022-11-13T14:04:24.224Z,53.43
2022-11-13T14:06:53.925Z,53.50
2022-11-13T14:09:23.684Z,53.40
2022-11-13T14:14:47.442Z,53.60
2022-11-13T14:17:23.671Z,52.47
2022-11-13T14:19:52.300Z,54.67
2022-11-13T14:22:20.038Z,51.47
2022-11-13T14:24:51.102Z,52.50
2022-11-13T14:27:23.137Z,52.97
2022-11-13T14:29:53.416Z,53.13
2022-11-13T14:32:24.487Z,51.10
2022-11-13T14:34:54.780Z,53.13
2022-11-13T14:37:25.992Z,52.80
2022-11-13T14:39:55.247Z,53.40
2022-11-13T14:42:29.844Z,52.40
2022-11-13T14:45:07.360Z,53.30
2022-11-13T14:47:37.566Z,53.43
2022-11-13T14:50:20.298Z,53.93
2022-11-13T14:52:57.637Z,53.53
2022-11-13T14:55:27.313Z,56.43
2022-11-13T14:57:56.228Z,55.73
2022-11-13T15:00:29.957Z,56.87
2022-11-13T15:02:57.869Z,56.80
2022-11-13T15:05:25.741Z,56.90
2022-11-13T15:07:55.453Z,58.30
2022-11-13T15:10:27.198Z,55.67
2022-11-13T15:12:56.106Z,56.10
2022-11-13T15:15:28.278Z,58.90
2022-11-13T15:17:56.216Z,58.97
2022-11-13T15:20:26.836Z,58.47
2022-11-13T15:22:55.376Z,63.73
2022-11-13T15:25:25.037Z,88.47
2022-11-13T15:27:52.633Z,68.70
2022-11-13T15:30:21.801Z,69.60
2022-11-13T15:32:53.724Z,66.37
2022-11-13T15:35:22.199Z,59.17
2022-11-13T15:37:49.855Z,59.07
2022-11-13T15:40:17.829Z,58.70
2022-11-13T15:42:45.845Z,60.00
2022-11-13T15:45:17.671Z,57.83
2022-11-13T15:47:46.540Z,58.20
2022-11-13T15:50:15.666Z,57.70
2022-11-13T15:52:46.938Z,56.30
2022-11-13T15:55:26.726Z,58.13
2022-11-13T15:57:54.712Z,58.20
2022-11-13T16:00:25.703Z,58.30
2022-11-13T16:02:56.112Z,59.00
2022-11-13T16:05:25.345Z,59.97
2022-11-13T16:07:53.786Z,58.53
2022-11-13T16:10:22.300Z,61.60
2022-11-13T16:12:49.848Z,59.20
2022-11-13T16:15:19.871Z,57.23
2022-11-13T16:17:50.193Z,57.73
2022-11-13T16:20:19.313Z,60.83
2022-11-13T16:22:47.460Z,57.10
2022-11-13T16:25:17.689Z,56.07
2022-11-13T16:27:45.977Z,57.10
2022-11-13T16:30:19.967Z,56.23
2022-11-13T16:32:48.182Z,56.67
2022-11-13T16:35:16.903Z,55.87
2022-11-13T16:37:45.836Z,52.47
2022-11-13T16:40:20.626Z,54.07
2022-11-13T16:42:48.657Z,56.63
2022-11-13T16:45:16.722Z,54.50
2022-11-13T16:47:44.724Z,53.73
2022-11-13T16:50:17.566Z,53.97
2022-11-13T16:52:46.568Z,57.27
2022-11-13T16:55:14.194Z,55.60
2022-11-13T16:57:42.234Z,53.10
2022-11-13T17:00:14.624Z,52.83
2022-11-13T17:02:42.196Z,52.03
2022-11-13T17:05:13.535Z,54.23
2022-11-13T17:07:41.107Z,53.90
2022-11-13T17:10:30.411Z,56.47
2022-11-13T17:12:58.728Z,53.73
2022-11-13T17:15:26.306Z,53.90
2022-11-13T17:17:57.902Z,53.37
2022-11-13T17:20:25.485Z,54.47
2022-11-13T17:22:53.052Z,54.57
2022-11-13T17:25:26.221Z,57.53
2022-11-13T17:27:53.761Z,61.60
2022-11-13T17:30:21.602Z,53.90
2022-11-13T17:32:49.190Z,53.57
2022-11-13T17:35:16.753Z,57.13
2022-11-13T17:37:44.296Z,54.33
2022-11-13T17:40:12.693Z,55.27
2022-11-13T17:42:42.807Z,53.43
2022-11-13T17:45:10.866Z,59.53
2022-11-13T17:47:38.404Z,55.20
2022-11-13T17:50:07.853Z,59.17
2022-11-13T17:52:35.709Z,64.87
2022-11-13T17:55:05.965Z,59.20
2022-11-13T17:57:34.218Z,55.07
2022-11-13T18:00:03.294Z,54.60
2022-11-13T18:02:30.825Z,54.73
2022-11-13T18:05:01.103Z,54.47
2022-11-13T18:07:28.740Z,54.13
2022-11-13T18:09:56.444Z,53.70
2022-11-13T18:12:24.040Z,53.90
2022-11-13T18:14:53.133Z,56.30
2022-11-13T18:17:23.076Z,56.33
2022-11-13T18:19:54.813Z,56.50
2022-11-13T18:22:26.429Z,57.53
2022-11-13T18:24:55.149Z,54.70
2022-11-13T18:27:22.847Z,57.27
2022-11-13T18:29:50.381Z,59.13
2022-11-13T18:32:17.933Z,60.63
2022-11-13T18:34:46.833Z,58.90
2022-11-13T18:37:14.404Z,59.50
2022-11-13T18:39:41.958Z,63.27
2022-11-13T18:42:09.490Z,61.37
2022-11-13T18:44:37.283Z,60.77
2022-11-13T18:47:04.985Z,61.07
2022-11-13T18:49:32.862Z,56.87
2022-11-13T18:52:01.804Z,59.13
2022-11-13T18:54:29.397Z,61.47
2022-11-13T18:56:56.951Z,60.20
2022-11-13T18:59:24.657Z,59.13
2022-11-13T19:01:52.225Z,58.93
2022-11-13T19:04:23.863Z,59.83
2022-11-13T19:06:52.644Z,59.97
2022-11-13T19:09:21.683Z,59.63
2022-11-13T19:11:50.235Z,55.33
2022-11-13T19:14:19.198Z,56.40
2022-11-13T19:16:47.137Z,58.73
2022-11-13T19:19:17.294Z,54.63
2022-11-13T19:21:45.313Z,53.17
2022-11-13T19:24:14.534Z,55.23
2022-11-13T19:26:46.137Z,55.50
2022-11-13T19:29:14.042Z,54.00
2022-11-13T19:31:42.109Z,53.97
2022-11-13T19:34:11.042Z,53.60
2022-11-13T19:36:40.901Z,53.03
2022-11-13T19:39:09.670Z,53.87
2022-11-13T19:41:37.289Z,55.63
2022-11-13T19:44:06.856Z,53.73
2022-11-13T19:46:34.425Z,53.67
2022-11-13T19:49:02.164Z,53.00
2022-11-13T19:51:29.990Z,55.20
2022-11-13T19:54:01.315Z,55.27
2022-11-13T19:56:32.126Z,52.43
2022-11-13T19:58:59.685Z,53.40
2022-11-13T20:01:31.737Z,53.30
2022-11-13T20:04:01.627Z,51.57
2022-11-13T20:06:32.181Z,50.87
2022-11-13T20:09:00.039Z,49.70
2022-11-13T20:11:27.664Z,47.77
2022-11-13T20:13:56.421Z,46.63
2022-11-13T20:16:24.951Z,47.70
2022-11-13T20:18:57.966Z,47.10
2022-11-13T20:21:26.105Z,45.77
2022-11-13T20:23:56.567Z,46.30
2022-11-13T20:26:24.181Z,45.73
2022-11-13T20:28:52.097Z,44.20
2022-11-13T20:31:22.194Z,43.40
2022-11-13T20:33:50.755Z,42.00
2022-11-13T20:36:20.073Z,43.53
2022-11-13T20:38:51.353Z,42.70
2022-11-13T20:41:20.632Z,42.40
2022-11-13T20:43:48.594Z,40.93
2022-11-13T20:46:17.832Z,41.73
2022-11-13T20:48:46.544Z,40.53
2022-11-13T20:51:16.298Z,39.30
2022-11-13T20:53:45.324Z,39.53
2022-11-13T20:56:13.073Z,38.40
2022-11-13T20:58:41.073Z,39.23
2022-11-13T21:01:11.202Z,40.60
2022-11-13T21:03:41.357Z,39.03
2022-11-13T21:06:10.851Z,38.23
2022-11-13T21:08:38.492Z,38.10
2022-11-13T21:11:08.620Z,38.77
2022-11-13T21:13:36.237Z,39.10
2022-11-13T21:16:06.089Z,38.43
2022-11-13T21:18:33.705Z,37.07
2022-11-13T21:21:05.576Z,35.90
2022-11-13T21:23:33.112Z,37.40
2022-11-13T21:26:01.325Z,37.00
2022-11-13T21:28:33.682Z,37.97
2022-11-13T21:31:03.126Z,37.80
2022-11-13T21:33:30.976Z,36.33
2022-11-13T21:36:05.198Z,35.17
2022-11-13T21:38:32.861Z,37.07
2022-11-13T21:41:14.631Z,35.13
2022-11-13T21:43:43.518Z,34.83
2022-11-13T21:46:11.168Z,35.70
2022-11-13T21:48:39.295Z,35.90
2022-11-13T21:51:07.451Z,37.37
2022-11-13T21:53:35.271Z,37.47
2022-11-13T21:56:03.040Z,38.27
2022-11-13T21:58:31.751Z,38.63
2022-11-13T22:01:01.482Z,39.53
2022-11-13T22:03:29.644Z,38.60
2022-11-13T22:06:13.773Z,38.00
2022-11-13T22:08:41.344Z,39.03
2022-11-13T22:11:09.104Z,38.30
2022-11-13T22:13:36.797Z,40.10
2022-11-13T22:16:07.295Z,39.63
2022-11-13T22:18:35.318Z,39.00
2022-11-13T22:21:03.596Z,38.73
2022-11-13T22:23:31.604Z,38.93
2022-11-13T22:26:03.290Z,39.03
2022-11-13T22:28:31.318Z,39.67
2022-11-13T22:30:59.282Z,38.10
2022-11-13T22:33:30.082Z,40.83
2022-11-13T22:36:01.865Z,39.80
2022-11-13T22:38:29.624Z,41.30
2022-11-13T22:41:04.256Z,40.57
2022-11-13T22:43:36.021Z,40.90
2022-11-13T22:46:06.090Z,42.87
2022-11-13T22:48:36.581Z,42.23
2022-11-13T22:51:05.842Z,42.03
2022-11-13T22:53:33.589Z,41.03
2022-11-13T22:56:02.722Z,41.37
2022-11-13T22:58:30.711Z,41.27
2022-11-13T23:01:05.464Z,41.70
2022-11-13T23:03:33.130Z,42.20
2022-11-13T23:06:03.625Z,42.23
2022-11-13T23:08:31.657Z,41.37
2022-11-13T23:11:01.038Z,42.77
2022-11-13T23:13:28.580Z,42.13
2022-11-13T23:15:56.352Z,42.40
2022-11-13T23:18:23.905Z,41.70
2022-11-13T23:20:51.459Z,40.97
2022-11-13T23:23:20.354Z,43.00
2022-11-13T23:25:47.896Z,42.83
2022-11-13T23:28:15.458Z,41.93
2022-11-13T23:30:43.093Z,43.60
2022-11-13T23:33:10.641Z,43.63
2022-11-13T23:35:38.228Z,43.10
2022-11-13T23:38:05.832Z,43.53
2022-11-13T23:40:34.868Z,44.03
2022-11-13T23:43:02.554Z,46.40
2022-11-13T23:45:30.581Z,46.00
2022-11-13T23:47:58.461Z,47.60
2022-11-13T23:50:26.034Z,46.93
2022-11-13T23:52:53.581Z,47.70
2022-11-13T23:55:22.508Z,49.00
2022-11-13T23:57:57.071Z,48.00
